createdAt,value
2023-01-20T00:02:00.407Z,23.40
2023-01-20T00:04:29.487Z,20.07
2023-01-20T00:06:57.942Z,32.50
2023-01-20T00:09:25.998Z,42.35
2023-01-20T00:11:53.717Z,36.58
2023-01-20T00:14:21.483Z,47.05
2023-01-20T00:16:49.454Z,37.50
2023-01-20T00:19:17.271Z,55.50
2023-01-20T00:21:46.260Z,52.72
2023-01-20T00:24:13.982Z,56.90
2023-01-20T00:26:42.728Z,60.80
2023-01-20T00:29:11.004Z,62.87
2023-01-20T00:31:39.156Z,58.25
2023-01-20T00:34:06.943Z,71.47
2023-01-20T00:36:35.208Z,71.38
2023-01-20T00:39:05.485Z,66.93
2023-01-20T00:41:33.584Z,66.75
2023-01-20T00:44:03.604Z,71.75
2023-01-20T00:46:31.413Z,67.77
2023-01-20T00:48:59.415Z,73.78
2023-01-20T00:51:27.228Z,70.13
2023-01-20T00:53:55.263Z,78.07
2023-01-20T00:56:24.390Z,76.40
2023-01-20T00:58:53.010Z,70.53
2023-01-20T01:01:20.896Z,67.68
2023-01-20T01:03:48.819Z,65.05
2023-01-20T01:06:32.361Z,57.90
2023-01-20T01:09:04.016Z,55.63
2023-01-20T01:11:33.179Z,56.78
2023-01-20T01:14:00.979Z,57.08
2023-01-20T01:20:13.709Z,44.60
2023-01-20T01:22:41.920Z,49.00
2023-01-20T01:25:09.956Z,49.78
2023-01-20T01:27:39.088Z,47.80
2023-01-20T01:30:08.072Z,53.33
2023-01-20T01:32:35.874Z,48.78
2023-01-20T01:35:03.676Z,54.38
2023-01-20T01:37:31.430Z,53.63
2023-01-20T01:39:59.190Z,49.63
2023-01-20T01:42:29.320Z,53.95
2023-01-20T01:45:22.685Z,57.97
2023-01-20T01:47:53.862Z,62.03
2023-01-20T01:50:25.338Z,61.08
2023-01-20T01:52:55.030Z,69.28
2023-01-20T01:55:24.549Z,62.17
2023-01-20T01:57:53.273Z,61.83
2023-01-20T02:00:22.913Z,66.10
2023-01-20T02:02:51.156Z,62.08
2023-01-20T02:05:19.357Z,67.80
2023-01-20T02:07:48.672Z,65.10
2023-01-20T02:10:18.713Z,68.20
2023-01-20T02:12:49.751Z,64.13
2023-01-20T02:15:22.781Z,66.03
2023-01-20T02:18:06.539Z,74.70
2023-01-20T02:21:06.015Z,65.93
2023-01-20T02:23:47.465Z,70.70
2023-01-20T02:30:18.910Z,74.25
2023-01-20T02:32:55.743Z,74.32
2023-01-20T02:35:26.402Z,67.53
2023-01-20T02:38:15.433Z,72.78
2023-01-20T02:40:54.575Z,74.23
2023-01-20T02:43:29.167Z,65.30
2023-01-20T02:46:01.242Z,65.20
2023-01-20T02:48:35.419Z,74.65
2023-01-20T02:54:05.093Z,71.50
2023-01-20T02:56:33.347Z,69.75
2023-01-20T02:59:03.858Z,66.82
2023-01-20T03:01:33.610Z,65.32
2023-01-20T03:04:04.380Z,70.07
2023-01-20T03:06:35.962Z,66.45
2023-01-20T03:09:07.525Z,60.70
2023-01-20T03:11:37.552Z,54.88
2023-01-20T03:14:08.732Z,52.75
2023-01-20T03:16:36.832Z,52.90
2023-01-20T03:19:06.188Z,55.88
2023-01-20T03:21:37.878Z,60.17
2023-01-20T03:24:06.881Z,55.53
2023-01-20T03:26:35.310Z,51.67
2023-01-20T03:29:06.664Z,50.88
2023-01-20T03:31:37.680Z,52.28
2023-01-20T03:34:14.418Z,46.88
2023-01-20T03:36:43.777Z,47.70
2023-01-20T03:39:11.843Z,44.05
2023-01-20T03:41:52.471Z,39.20
2023-01-20T03:44:23.550Z,33.55
2023-01-20T03:46:54.877Z,30.20
2023-01-20T03:49:28.148Z,23.13
2023-01-20T03:52:01.040Z,21.13
2023-01-20T03:57:32.584Z,23.75
2023-01-20T04:00:00.648Z,24.55
2023-01-20T04:02:32.432Z,24.87
2023-01-20T04:05:02.686Z,30.08
2023-01-20T04:07:32.111Z,23.85
2023-01-20T04:10:04.371Z,27.40
2023-01-20T04:12:32.213Z,27.05
2023-01-20T04:17:56.430Z,29.95
2023-01-20T04:20:27.802Z,30.80
2023-01-20T04:28:45.293Z,30.55
2023-01-20T04:31:28.942Z,35.67
2023-01-20T04:33:57.382Z,38.30
2023-01-20T04:36:26.566Z,40.90
2023-01-20T04:38:54.455Z,41.53
2023-01-20T04:41:24.288Z,42.90
2023-01-20T04:43:52.238Z,48.53
2023-01-20T04:46:19.892Z,45.17
2023-01-20T04:48:47.748Z,45.08
2023-01-20T04:51:16.580Z,47.35
2023-01-20T04:53:45.993Z,46.17
2023-01-20T04:56:16.647Z,43.92
2023-01-20T04:58:45.795Z,45.45
2023-01-20T05:01:13.849Z,43.65
2023-01-20T05:03:41.789Z,39.40
2023-01-20T05:06:11.268Z,39.92
2023-01-20T05:08:39.112Z,39.42
2023-01-20T05:11:08.424Z,48.40
2023-01-20T05:13:39.294Z,39.53
2023-01-20T05:16:07.890Z,40.53
2023-01-20T05:18:35.873Z,40.35
2023-01-20T05:21:04.931Z,42.28
2023-01-20T05:23:34.437Z,45.97
2023-01-20T05:26:02.124Z,47.55
2023-01-20T05:28:31.463Z,55.33
2023-01-20T05:30:59.751Z,51.00
2023-01-20T05:33:27.816Z,50.05
2023-01-20T05:35:56.118Z,53.10
2023-01-20T05:38:23.973Z,51.17
2023-01-20T05:40:51.732Z,46.30
2023-01-20T05:43:20.277Z,41.85
2023-01-20T05:45:49.562Z,37.20
2023-01-20T05:48:17.483Z,42.88
2023-01-20T05:50:48.668Z,47.55
2023-01-20T05:53:17.100Z,54.72
2023-01-20T05:55:45.122Z,56.55
2023-01-20T05:58:14.405Z,47.30
2023-01-20T06:00:42.433Z,47.95
2023-01-20T06:03:11.601Z,48.05
2023-01-20T06:05:39.234Z,50.95
2023-01-20T06:08:07.529Z,52.37
2023-01-20T06:10:35.436Z,43.70
2023-01-20T06:13:03.328Z,47.40
2023-01-20T06:15:31.236Z,48.20
2023-01-20T06:17:59.176Z,47.70
2023-01-20T06:20:29.041Z,52.42
2023-01-20T06:22:57.033Z,50.67
2023-01-20T06:28:19.306Z,47.78
2023-01-20T06:30:47.181Z,46.83
2023-01-20T06:33:15.200Z,51.88
2023-01-20T06:35:44.336Z,54.75
2023-01-20T06:38:13.257Z,45.85
2023-01-20T06:40:41.213Z,48.58
2023-01-20T06:43:09.140Z,48.28
2023-01-20T06:45:38.389Z,46.92
2023-01-20T06:48:08.594Z,58.03
2023-01-20T06:50:36.509Z,54.10
2023-01-20T06:53:05.807Z,54.30
2023-01-20T06:55:33.603Z,52.70
2023-01-20T06:58:02.299Z,49.80
2023-01-20T07:00:30.388Z,56.28
2023-01-20T07:02:58.240Z,54.42
2023-01-20T07:05:26.111Z,48.63
2023-01-20T07:07:53.909Z,48.88
2023-01-20T07:10:23.210Z,46.33
2023-01-20T07:12:51.787Z,45.10
2023-01-20T07:15:19.795Z,41.67
2023-01-20T07:17:47.792Z,42.70
2023-01-20T07:20:15.762Z,40.08
2023-01-20T07:22:43.631Z,44.55
2023-01-20T07:25:11.532Z,40.47
2023-01-20T07:27:40.851Z,33.87
2023-01-20T07:30:10.215Z,33.58
2023-01-20T07:32:38.798Z,36.80
2023-01-20T07:35:07.496Z,36.15
2023-01-20T07:37:35.323Z,34.78
2023-01-20T07:40:03.541Z,31.80
2023-01-20T07:42:31.288Z,42.33
2023-01-20T07:45:01.692Z,42.40
2023-01-20T07:47:37.654Z,47.13
2023-01-20T07:50:08.775Z,46.03
2023-01-20T07:52:39.666Z,40.40
2023-01-20T07:55:10.487Z,47.30
2023-01-20T07:57:38.500Z,49.70
2023-01-20T08:00:10.770Z,53.15
2023-01-20T08:02:39.420Z,48.40
2023-01-20T08:07:53.014Z,51.00
2023-01-20T08:10:24.507Z,48.40
2023-01-20T08:12:55.862Z,50.45
2023-01-20T08:16:09.246Z,51.15
2023-01-20T08:22:55.336Z,47.33
2023-01-20T08:25:23.435Z,53.20
2023-01-20T08:28:42.779Z,52.30
2023-01-20T08:31:31.237Z,52.63
2023-01-20T08:33:59.642Z,51.60
2023-01-20T08:36:58.672Z,53.45
2023-01-20T08:39:26.794Z,52.22
2023-01-20T08:41:54.858Z,49.22
2023-01-20T08:44:22.757Z,52.55
2023-01-20T08:46:55.173Z,57.13
2023-01-20T08:49:23.659Z,54.45
2023-01-20T08:51:51.922Z,57.30
2023-01-20T08:54:19.875Z,59.72
2023-01-20T08:56:51.227Z,57.50
2023-01-20T08:59:19.158Z,49.08
2023-01-20T09:01:46.972Z,52.70
2023-01-20T09:04:16.155Z,49.38
2023-01-20T09:06:45.921Z,54.60
2023-01-20T09:09:15.135Z,51.67
2023-01-20T09:11:44.789Z,48.17
2023-01-20T09:14:12.653Z,54.27
2023-01-20T09:16:40.388Z,54.72
2023-01-20T09:19:08.525Z,56.67
2023-01-20T09:21:37.590Z,48.22
2023-01-20T09:24:06.197Z,52.95
2023-01-20T09:26:38.594Z,52.53
2023-01-20T09:29:10.408Z,48.77
2023-01-20T09:31:38.776Z,44.58
2023-01-20T09:34:06.482Z,48.28
2023-01-20T09:36:34.343Z,45.03
2023-01-20T09:39:24.312Z,41.40
2023-01-20T09:42:10.030Z,43.42
2023-01-20T09:44:50.364Z,42.25
2023-01-20T09:51:48.580Z,43.97
2023-01-20T09:57:10.393Z,41.78
2023-01-20T10:02:29.244Z,44.17
2023-01-20T10:05:00.328Z,42.22
2023-01-20T10:07:33.971Z,41.77
2023-01-20T10:10:10.494Z,40.55
2023-01-20T10:12:42.106Z,35.30
2023-01-20T10:15:12.632Z,34.92
2023-01-20T10:17:44.284Z,32.08
2023-01-20T10:20:19.202Z,30.45
2023-01-20T10:22:50.211Z,31.02
2023-01-20T10:25:22.570Z,32.00
2023-01-20T10:27:54.110Z,33.50
2023-01-20T10:30:25.272Z,37.53
2023-01-20T10:32:56.327Z,36.30
2023-01-20T10:35:27.176Z,27.02
2023-01-20T10:37:55.781Z,29.25
2023-01-20T10:40:35.327Z,25.45
2023-01-20T10:43:11.567Z,33.35
2023-01-20T10:45:48.506Z,28.67
2023-01-20T10:48:27.357Z,25.38
2023-01-20T10:50:57.575Z,26.00
2023-01-20T10:53:44.125Z,20.55
2023-01-20T10:56:24.925Z,26.70
2023-01-20T10:58:53.300Z,23.58
2023-01-20T11:01:21.701Z,22.70
2023-01-20T11:03:50.172Z,24.38
2023-01-20T11:06:20.666Z,29.45
2023-01-20T11:08:48.868Z,23.45
2023-01-20T11:11:20.771Z,26.60
2023-01-20T11:13:48.876Z,25.13
2023-01-20T11:16:19.066Z,25.13
2023-01-20T11:18:57.519Z,22.65
2023-01-20T11:21:26.404Z,24.30
2023-01-20T11:23:56.878Z,21.42
2023-01-20T11:26:28.413Z,19.83
2023-01-20T11:28:58.181Z,21.55
2023-01-20T11:31:37.176Z,27.77
2023-01-20T11:34:21.012Z,20.10
2023-01-20T11:36:48.636Z,24.70
2023-01-20T11:39:26.583Z,28.75
2023-01-20T11:42:11.988Z,25.83
2023-01-20T11:44:43.171Z,26.33
2023-01-20T11:47:24.606Z,21.73
2023-01-20T11:50:26.029Z,23.55
2023-01-20T11:52:53.500Z,23.20
2023-01-20T11:55:23.386Z,25.97
2023-01-20T11:57:56.975Z,25.92
2023-01-20T12:00:39.032Z,27.27
2023-01-20T12:03:28.841Z,22.37
2023-01-20T12:06:00.954Z,20.45
2023-01-20T12:08:31.584Z,22.20
2023-01-20T12:11:03.746Z,21.47
2023-01-20T12:13:57.481Z,21.67
2023-01-20T12:16:27.023Z,23.38
2023-01-20T12:19:02.213Z,24.60
2023-01-20T12:21:35.210Z,23.17
2023-01-20T12:24:07.868Z,22.15
2023-01-20T12:26:35.974Z,24.17
2023-01-20T12:29:08.995Z,27.15
2023-01-20T12:31:36.910Z,25.45
2023-01-20T12:34:06.128Z,23.77
2023-01-20T12:37:00.284Z,21.30
2023-01-20T12:39:44.951Z,24.67
2023-01-20T12:42:29.141Z,25.15
2023-01-20T12:44:59.905Z,25.77
2023-01-20T12:47:40.181Z,24.05
2023-01-20T12:50:19.747Z,20.63
2023-01-20T12:52:58.520Z,22.13
2023-01-20T12:55:46.987Z,27.67
2023-01-20T12:58:22.028Z,21.35
2023-01-20T13:01:18.194Z,23.83
2023-01-20T13:04:12.882Z,24.25
2023-01-20T13:06:50.713Z,24.80
2023-01-20T13:09:35.926Z,28.17
2023-01-20T13:12:11.794Z,27.23
2023-01-20T13:14:43.215Z,27.20
2023-01-20T13:17:20.764Z,24.67
2023-01-20T13:19:49.437Z,26.73
2023-01-20T13:22:19.226Z,24.48
2023-01-20T13:24:49.153Z,27.10
2023-01-20T13:27:21.811Z,24.95
2023-01-20T13:29:57.776Z,26.07
2023-01-20T13:32:32.319Z,24.55
2023-01-20T13:35:01.599Z,25.70
2023-01-20T13:37:35.701Z,23.08
2023-01-20T13:40:03.665Z,24.40
2023-01-20T13:42:49.596Z,27.77
2023-01-20T13:45:25.722Z,24.92
2023-01-20T13:47:58.674Z,27.15
2023-01-20T13:50:29.688Z,27.95
2023-01-20T13:53:15.005Z,26.48
2023-01-20T13:56:08.042Z,24.20
2023-01-20T13:58:36.210Z,27.98
2023-01-20T14:01:05.595Z,27.23
2023-01-20T14:03:36.424Z,28.52
2023-01-20T14:06:06.758Z,26.20
2023-01-20T14:08:39.895Z,33.05
2023-01-20T14:11:12.448Z,31.08
2023-01-20T14:13:40.691Z,32.80
2023-01-20T14:16:19.536Z,32.53
2023-01-20T14:18:49.055Z,32.08
2023-01-20T14:21:20.924Z,36.25
2023-01-20T14:23:48.782Z,34.17
2023-01-20T14:26:22.460Z,32.37
2023-01-20T14:28:51.921Z,35.53
2023-01-20T14:31:37.478Z,35.58
2023-01-20T14:34:24.229Z,33.70
2023-01-20T14:36:52.242Z,31.63
2023-01-20T14:39:21.727Z,35.70
2023-01-20T14:41:51.641Z,28.80
2023-01-20T14:44:21.425Z,26.73
2023-01-20T14:46:54.088Z,28.10
2023-01-20T14:49:32.816Z,27.38
2023-01-20T14:52:01.316Z,26.33
2023-01-20T14:54:38.748Z,27.27
2023-01-20T14:57:19.049Z,23.10
2023-01-20T14:59:46.872Z,20.03
2023-01-20T15:02:19.937Z,23.75
2023-01-20T15:04:49.062Z,21.70
2023-01-20T15:07:19.398Z,21.27
2023-01-20T15:09:52.811Z,23.40
2023-01-20T15:12:40.478Z,23.83
2023-01-20T15:15:14.603Z,22.90
2023-01-20T15:18:15.776Z,24.70
2023-01-20T15:20:46.499Z,23.52
2023-01-20T15:23:20.499Z,23.98
2023-01-20T15:25:48.245Z,19.98
2023-01-20T15:28:22.958Z,22.50
2023-01-20T15:30:50.657Z,19.95
2023-01-20T15:33:18.191Z,16.45
2023-01-20T15:35:47.106Z,14.25
2023-01-20T15:38:14.868Z,15.27
2023-01-20T15:40:42.433Z,14.50
2023-01-20T15:43:15.500Z,17.33
2023-01-20T15:45:43.245Z,24.85
2023-01-20T15:48:18.631Z,25.27
2023-01-20T15:50:48.088Z,24.70
2023-01-20T15:53:16.495Z,21.77
2023-01-20T15:55:49.269Z,21.23
2023-01-20T15:58:22.772Z,26.42
2023-01-20T16:00:50.861Z,24.90
2023-01-20T16:03:18.711Z,24.98
2023-01-20T16:05:48.896Z,24.40
2023-01-20T16:08:17.255Z,24.13
2023-01-20T16:10:45.374Z,20.42
2023-01-20T16:13:12.976Z,24.58
2023-01-20T16:15:42.874Z,27.23
2023-01-20T16:18:13.465Z,25.02
2023-01-20T16:20:41.905Z,24.80
2023-01-20T16:23:10.867Z,29.63
2023-01-20T16:25:38.489Z,28.35
2023-01-20T16:28:13.209Z,28.90
2023-01-20T16:30:41.306Z,33.85
2023-01-20T16:33:16.830Z,30.95
2023-01-20T16:35:44.759Z,33.80
2023-01-20T16:38:16.546Z,31.45
2023-01-20T16:40:47.694Z,32.17
2023-01-20T16:43:15.220Z,30.77
2023-01-20T16:45:43.295Z,32.05
2023-01-20T16:48:10.941Z,26.52
2023-01-20T16:50:38.613Z,34.50
2023-01-20T16:53:06.206Z,27.80
2023-01-20T16:55:37.503Z,35.47
2023-01-20T16:58:06.828Z,35.90
2023-01-20T17:00:34.818Z,39.97
2023-01-20T17:03:03.388Z,38.72
2023-01-20T17:05:30.985Z,30.83
2023-01-20T17:08:02.105Z,39.92
2023-01-20T17:11:05.564Z,35.35
2023-01-20T17:13:33.327Z,39.63
2023-01-20T17:16:01.029Z,40.97
2023-01-20T17:18:30.445Z,42.17
2023-01-20T17:20:58.310Z,36.43
2023-01-20T17:23:26.257Z,37.13
2023-01-20T17:25:55.152Z,38.15
2023-01-20T17:28:25.960Z,33.88
2023-01-20T17:30:53.671Z,35.10
2023-01-20T17:33:24.648Z,36.75
2023-01-20T17:35:56.414Z,36.55
2023-01-20T17:38:24.496Z,39.92
2023-01-20T17:40:52.267Z,35.25
2023-01-20T17:43:21.216Z,36.30
2023-01-20T17:45:48.954Z,33.20
2023-01-20T17:48:16.640Z,32.67
2023-01-20T17:50:44.356Z,34.53
2023-01-20T17:53:12.816Z,35.05
2023-01-20T17:55:40.497Z,40.97
2023-01-20T17:58:08.463Z,42.97
2023-01-20T18:00:37.354Z,37.38
2023-01-20T18:03:05.067Z,35.22
2023-01-20T18:05:35.131Z,32.05
2023-01-20T18:08:03.002Z,32.75
2023-01-20T18:10:30.725Z,29.55
2023-01-20T18:12:58.768Z,31.88
2023-01-20T18:15:26.395Z,31.80
2023-01-20T18:17:55.448Z,36.20
2023-01-20T18:20:23.917Z,38.42
2023-01-20T18:22:51.834Z,35.33
2023-01-20T18:25:19.637Z,36.92
2023-01-20T18:27:47.295Z,32.25
2023-01-20T18:30:15.950Z,39.80
2023-01-20T18:32:43.748Z,31.05
2023-01-20T18:35:12.998Z,33.35
2023-01-20T18:37:40.676Z,36.33
2023-01-20T18:40:10.925Z,44.55
2023-01-20T18:42:38.747Z,44.10
2023-01-20T18:45:08.933Z,40.63
2023-01-20T18:47:36.759Z,41.70
2023-01-20T18:50:05.018Z,43.28
2023-01-20T18:52:34.209Z,41.55
2023-01-20T18:55:02.122Z,48.25
2023-01-20T18:57:29.987Z,43.58
2023-01-20T18:59:57.972Z,45.65
2023-01-20T19:02:26.986Z,48.63
2023-01-20T19:04:54.868Z,54.72
2023-01-20T19:07:22.733Z,49.30
2023-01-20T19:09:52.084Z,54.17
2023-01-20T19:12:19.894Z,51.60
2023-01-20T19:14:47.681Z,50.75
2023-01-20T19:17:15.650Z,47.60
2023-01-20T19:19:47.889Z,49.80
2023-01-20T19:22:15.761Z,53.38
2023-01-20T19:24:43.632Z,47.53
2023-01-20T19:27:12.815Z,54.40
2023-01-20T19:29:41.495Z,52.58
2023-01-20T19:32:09.390Z,58.90
2023-01-20T19:34:37.475Z,50.65
2023-01-20T19:37:05.277Z,48.75
2023-01-20T19:39:33.115Z,53.30
2023-01-20T19:42:00.878Z,48.97
2023-01-20T19:44:30.451Z,49.20
2023-01-20T19:47:03.996Z,49.45
2023-01-20T19:49:31.830Z,49.53
2023-01-20T19:52:00.778Z,44.00
2023-01-20T19:54:31.039Z,41.80
2023-01-20T19:56:58.807Z,45.17
2023-01-20T19:59:26.831Z,42.72
2023-01-20T20:01:56.343Z,49.88
2023-01-20T20:04:25.489Z,49.45
2023-01-20T20:06:53.280Z,53.08
2023-01-20T20:09:23.579Z,46.35
2023-01-20T20:11:51.755Z,51.85
2023-01-20T20:14:20.814Z,50.78
2023-01-20T20:16:49.213Z,53.28
2023-01-20T20:19:20.229Z,58.47
2023-01-20T20:21:48.204Z,60.30
2023-01-20T20:24:17.792Z,60.78
2023-01-20T20:26:46.784Z,57.92
2023-01-20T20:29:16.109Z,58.60
2023-01-20T20:31:44.108Z,52.45
2023-01-20T20:34:14.436Z,60.33
2023-01-20T20:36:43.847Z,51.20
2023-01-20T20:39:14.359Z,53.25
2023-01-20T20:41:42.370Z,48.72
2023-01-20T20:44:10.744Z,48.23
2023-01-20T20:46:38.851Z,49.30
2023-01-20T20:49:06.916Z,47.03
2023-01-20T20:51:35.445Z,48.22
2023-01-20T20:54:04.991Z,49.13
2023-01-20T20:56:33.267Z,57.40
2023-01-20T20:59:03.432Z,56.92
2023-01-20T21:01:32.727Z,54.75
2023-01-20T21:04:00.981Z,59.28
2023-01-20T21:06:29.431Z,55.30
2023-01-20T21:08:58.566Z,58.70
2023-01-20T21:11:28.461Z,57.70
2023-01-20T21:13:56.930Z,64.80
2023-01-20T21:16:26.220Z,59.67
2023-01-20T21:19:00.132Z,61.20
2023-01-20T21:24:21.165Z,51.43
2023-01-20T21:26:58.110Z,57.70
2023-01-20T21:29:27.568Z,58.00
2023-01-20T21:31:55.889Z,54.28
2023-01-20T21:34:25.601Z,50.88
2023-01-20T21:36:53.886Z,50.60
2023-01-20T21:39:21.875Z,49.22
2023-01-20T21:41:51.250Z,45.22
2023-01-20T21:44:29.657Z,56.78
2023-01-20T21:46:58.198Z,49.08
2023-01-20T21:49:46.289Z,58.97
2023-01-20T21:52:33.458Z,55.60
2023-01-20T21:55:01.631Z,59.88
2023-01-20T21:57:32.731Z,52.92
2023-01-20T22:00:01.279Z,56.90
2023-01-20T22:02:30.039Z,57.65
2023-01-20T22:05:00.302Z,55.28
2023-01-20T22:07:30.445Z,51.65
2023-01-20T22:09:58.451Z,42.90
2023-01-20T22:12:26.443Z,45.17
2023-01-20T22:14:56.074Z,49.07
2023-01-20T22:17:24.450Z,44.25
2023-01-20T22:19:52.403Z,51.42
2023-01-20T22:22:21.325Z,42.30
2023-01-20T22:24:49.324Z,54.53
2023-01-20T22:27:17.600Z,58.70
2023-01-20T22:29:45.695Z,51.25
2023-01-20T22:32:15.234Z,57.87
2023-01-20T22:34:43.385Z,59.50
2023-01-20T22:37:11.360Z,59.58
2023-01-20T22:39:39.438Z,65.28
2023-01-20T22:42:08.168Z,72.18
2023-01-20T22:44:35.912Z,66.20
2023-01-20T22:47:05.815Z,73.18
2023-01-20T22:49:35.110Z,73.87
2023-01-20T22:52:03.081Z,78.50
2023-01-20T22:54:31.015Z,74.63
2023-01-20T22:56:59.039Z,74.15
2023-01-20T22:59:27.207Z,77.45
2023-01-20T23:01:55.207Z,81.93
2023-01-20T23:04:24.712Z,75.32
2023-01-20T23:06:54.156Z,80.63
2023-01-20T23:09:22.354Z,79.00
2023-01-20T23:11:51.028Z,76.18
2023-01-20T23:14:38.935Z,78.55
2023-01-20T23:17:09.917Z,79.57
2023-01-20T23:19:37.888Z,77.13
2023-01-20T23:22:07.036Z,71.93
2023-01-20T23:24:35.035Z,68.93
2023-01-20T23:27:03.180Z,78.90
2023-01-20T23:29:31.103Z,72.93
2023-01-20T23:32:02.612Z,74.47
2023-01-20T23:34:30.849Z,73.40
2023-01-20T23:37:00.963Z,79.28
2023-01-20T23:39:30.421Z,71.97
2023-01-20T23:42:01.521Z,68.20
2023-01-20T23:44:29.785Z,75.88
2023-01-20T23:46:57.722Z,72.90
2023-01-20T23:49:27.450Z,76.57
2023-01-20T23:51:55.606Z,70.57
2023-01-20T23:54:23.681Z,73.05
2023-01-20T23:56:53.035Z,70.60
2023-01-20T23:59:21.086Z,73.47
